Buoy 13526

sailwx.info

Track history (hours):
 
Tides and Currents Weather Stations Pressure Air Temp Water Temp Dewpoint Dewpoint Depression Visibility Wind Speed Wind Dir Waves Ship Positions

Drifting buoy 13526

Last reported at 2014-Aug-22 08:54 UTC. Time now 2014-Aug-22 09:53 UTC.
Position N 26°49' W 034°43'.

Water temperature 26.7 ° C

Date/timePositionNaut miles runAvg speedWind from/ knotsBaromVisibWave heightAir tempDewpointWater temp
2014-Aug-22 08:54N 26°49' W 034°43'0 0.0 26.7
2014-Aug-22 07:27N 26°49' W 034°43'0 0.9 26.7
2014-Aug-22 07:16N 26°49' W 034°42'1 6.2 26.7
2014-Aug-22 07:10N 26°49' W 034°42'0 0.0 26.7
2014-Aug-22 06:33N 26°49' W 034°42'0 0.0 26.7
2014-Aug-22 06:10N 26°49' W 034°42'1 1.0 26.7
2014-Aug-22 05:35N 26°49' W 034°42'0 0.0 26.7
2014-Aug-22 04:54N 26°49' W 034°42'0 3.7 26.7
2014-Aug-22 04:46N 26°49' W 034°41'0 0.0 26.7
2014-Aug-22 03:17N 26°49' W 034°41'112.0 26.7
2014-Aug-22 03:11N 26°49' W 034°40'0 0.1 26.7
2014-Aug-22 00:24N 26°48' W 034°40'1 1.1 26.7
2014-Aug-21 23:38N 26°49' W 034°41'1 3.9 26.7
2014-Aug-21 23:27N 26°48' W 034°41'0 0.0 26.7
2014-Aug-21 22:44N 26°48' W 034°41'1 8.3 26.8
2014-Aug-21 22:39N 26°48' W 034°41'116.5 26.8
2014-Aug-21 22:35N 26°48' W 034°40'1 0.8 26.8
2014-Aug-21 21:55N 26°48' W 034°40'1 0.4 26.8
2014-Aug-21 20:09N 26°48' W 034°40'0 8.0 26.9
2014-Aug-21 20:06N 26°48' W 034°39'0 0.0 26.9
2014-Aug-21 19:29N 26°48' W 034°39'0 0.3 26.9
2014-Aug-21 18:51N 26°48' W 034°39'0 0.2 26.9
2014-Aug-21 17:50N 26°48' W 034°40'0 0.5 26.9
2014-Aug-21 17:08N 26°48' W 034°39'0 0.0 26.9
2014-Aug-21 16:28N 26°48' W 034°39'0 0.0 26.9
2014-Aug-21 16:27N 26°48' W 034°39'0 0.0 26.9
2014-Aug-21 16:24N 26°48' W 034°39'1 0.8 26.9
2014-Aug-21 14:47N 26°48' W 034°38'0 0.0 26.9
2014-Aug-21 13:09N 26°48' W 034°38'1 7.3 26.8
2014-Aug-21 13:00N 26°47' W 034°37'0 0.0 26.8
2014-Aug-21 12:23N 26°47' W 034°37'0 0.0 26.7
2014-Aug-21 12:18N 26°47' W 034°37'118.2 26.7
2014-Aug-21 12:15N 26°47' W 034°38'0 0.0 26.7
2014-Aug-21 11:28N 26°47' W 034°38'217.2 26.7
2014-Aug-21 11:22N 26°46' W 034°36'0 0.0 26.7
2014-Aug-21 08:10N 26°46' W 034°36'1 3.2 26.6
2014-Aug-21 07:58N 26°46' W 034°37'1 1.0 26.6
2014-Aug-21 07:26N 26°46' W 034°36'0 3.8 26.7
2014-Aug-21 07:21N 26°46' W 034°36'0 0.0 26.7
2014-Aug-21 06:35N 26°46' W 034°36'0 4.2 26.7
2014-Aug-21 06:29N 26°46' W 034°36'0 0.0 26.7
2014-Aug-21 06:15N 26°46' W 034°36'1 1.8 26.7
2014-Aug-21 05:41N 26°45' W 034°35'0 0.0 26.7
2014-Aug-21 05:06N 26°45' W 034°35'1 4.5 26.7
2014-Aug-21 04:57N 26°46' W 034°34'0 0.0 26.7
2014-Aug-21 03:28N 26°46' W 034°34'0 0.0 26.7
2014-Aug-21 03:25N 26°46' W 034°34'1 7.2 26.7
2014-Aug-21 03:19N 26°45' W 034°34'0 0.0 26.7
2014-Aug-21 00:41N 26°45' W 034°34'1 1.0 26.8
2014-Aug-20 23:55N 26°45' W 034°33'0 1.6 26.8
2014-Aug-20 23:52N 26°45' W 034°33'0 0.0 26.8
2014-Aug-20 23:04N 26°45' W 034°33'0 3.2 26.8
2014-Aug-20 23:01N 26°45' W 034°33'0 4.3
2014-Aug-20 22:55N 26°45' W 034°33'0 0.2
2014-Aug-20 22:23N 26°45' W 034°33'2 7.6 26.8
2014-Aug-20 22:07N 26°44' W 034°31'1 0.6 26.8
2014-Aug-20 20:49N 26°45' W 034°31'1 4.1 26.9
2014-Aug-20 20:37N 26°44' W 034°31'0 0.7 26.9
2014-Aug-20 19:56N 26°44' W 034°31'0 0.0 26.9
2014-Aug-20 19:52N 26°44' W 034°31'0 0.0 26.9
2014-Aug-20 19:02N 26°44' W 034°31'0 0.0 26.9
2014-Aug-20 18:56N 26°44' W 034°31'0 0.0 26.9
2014-Aug-20 18:13N 26°44' W 034°31'1 0.6 26.9
2014-Aug-20 17:21N 26°43' W 034°31'0 0.1 26.9
2014-Aug-20 16:39N 26°43' W 034°31'111.1 26.9
2014-Aug-20 16:35N 26°44' W 034°30'0 0.1 26.9
2014-Aug-20 14:57N 26°44' W 034°31'2 0.7 26.9
2014-Aug-20 12:39N 26°44' W 034°29'0 0.0 26.7
2014-Aug-20 12:32N 26°44' W 034°29'1 1.3 26.7
2014-Aug-20 11:42N 26°43' W 034°28'0 0.0 26.7
2014-Aug-20 10:56N 26°43' W 034°28'0 0.4 26.7
2014-Aug-20 10:04N 26°43' W 034°28'0 0.2 26.7
2014-Aug-20 08:33N 26°43' W 034°28'0 0.0 26.7
2014-Aug-20 07:38N 26°43' W 034°28'0 2.0 26.7
2014-Aug-20 07:30N 26°43' W 034°28'0 0.0 26.7
2014-Aug-20 06:57N 26°43' W 034°28'118.6 26.7
2014-Aug-20 06:54N 26°42' W 034°27'0 3.9 26.7
2014-Aug-20 06:49N 26°42' W 034°27'0 0.4 26.7
2014-Aug-20 05:57N 26°42' W 034°27'111.1 26.7
2014-Aug-20 05:52N 26°42' W 034°26'0 0.0 26.7
2014-Aug-20 05:15N 26°42' W 034°26'0 0.1 26.7
2014-Aug-20 03:39N 26°42' W 034°26'0 7.3 26.8
2014-Aug-20 03:36N 26°42' W 034°26'0 0.0 26.8
2014-Aug-20 01:05N 26°42' W 034°26'1 0.3 26.9
2014-Aug-19 23:27N 26°41' W 034°26'111.9 26.9
2014-Aug-19 23:21N 26°41' W 034°25'0 0.1 26.9
2014-Aug-19 22:35N 26°41' W 034°25'118.8 26.9
2014-Aug-19 22:32N 26°42' W 034°25'0 0.0 26.9
2014-Aug-19 21:45N 26°42' W 034°25'232.2 27.0
2014-Aug-19 21:42N 26°41' W 034°24'0 0.0 27.0
2014-Aug-19 21:38N 26°41' W 034°24'0 0.2 27.0
2014-Aug-19 19:33N 26°41' W 034°24'0 0.0 27.2
2014-Aug-19 19:10N 26°41' W 034°24'0 0.7 27.2
2014-Aug-19 18:41N 26°41' W 034°24'0 0.0 27.1
2014-Aug-19 18:38N 26°41' W 034°24'1 0.7 27.1
2014-Aug-19 17:32N 26°40' W 034°23'0 0.5 27.1
2014-Aug-19 16:50N 26°40' W 034°23'1 0.8 27.1
2014-Aug-19 15:09N 26°39' W 034°23'0 0.0 27.1
2014-Aug-19 13:49N 26°39' W 034°23'0 0.0 27.0
2014-Aug-19 13:00N 26°39' W 034°23'111.8 26.9
2014-Aug-19 12:54N 26°39' W 034°21'0 0.0 26.9
2014-Aug-19 12:10N 26°39' W 034°21'0 0.0 26.7
2014-Aug-19 12:08N 26°39' W 034°21'0 0.0 26.7
2014-Aug-19 12:02N 26°39' W 034°21'0 0.1 26.7
2014-Aug-19 11:22N 26°39' W 034°21'1 7.6 26.7
2014-Aug-19 11:16N 26°39' W 034°20'0 0.2 26.7
2014-Aug-19 10:27N 26°39' W 034°20'0 0.0 26.7
2014-Aug-19 09:03N 26°39' W 034°20'0 2.6 26.7
2014-Aug-19 08:56N 26°40' W 034°20'0 0.4 26.7
2014-Aug-19 07:47N 26°39' W 034°20'0 0.0 26.7
2014-Aug-19 07:24N 26°39' W 034°20'0 6.9 26.7
2014-Aug-19 07:21N 26°39' W 034°20'0 0.0 26.7
2014-Aug-19 06:11N 26°39' W 034°20'0 0.0 26.7
2014-Aug-19 06:09N 26°39' W 034°20'111.3 26.7
2014-Aug-19 06:03N 26°39' W 034°19'0 0.0 26.7
2014-Aug-19 05:26N 26°39' W 034°19'1 0.4 26.7
2014-Aug-19 03:50N 26°39' W 034°19'0 2.5 26.7
2014-Aug-19 03:47N 26°39' W 034°19'219.8 26.7
2014-Aug-19 03:42N 26°37' W 034°20'1 0.4 26.7
2014-Aug-19 01:23N 26°38' W 034°19'1 1.0 26.7
2014-Aug-19 00:37N 26°37' W 034°18'0 0.1 26.8
2014-Aug-18 23:41N 26°37' W 034°18'0 0.5 26.9
2014-Aug-18 22:57N 26°37' W 034°18'0 1.6 26.9
2014-Aug-18 22:54N 26°37' W 034°18'0 2.5 26.9
2014-Aug-18 22:51N 26°37' W 034°18'0 0.0 26.9
2014-Aug-18 22:46N 26°37' W 034°18'0 0.0
2014-Aug-18 22:06N 26°37' W 034°18'1 5.9 26.9
2014-Aug-18 21:59N 26°36' W 034°17'0 0.0 26.9
2014-Aug-18 21:49N 26°36' W 034°17'0 0.2 26.9
2014-Aug-18 20:43N 26°36' W 034°17'0 0.5 27.0
2014-Aug-18 20:10N 26°36' W 034°17'0 1.7 27.0
2014-Aug-18 20:04N 26°36' W 034°17'0 0.0 27.0
2014-Aug-18 19:24N 26°36' W 034°17'0 0.6 27.1
2014-Aug-18 19:05N 26°36' W 034°17'0 0.0 27.1
2014-Aug-18 17:44N 26°36' W 034°17'1 1.9 27.2
2014-Aug-18 17:23N 26°36' W 034°16'1 2.4 27.2
2014-Aug-18 17:01N 26°36' W 034°16'1 7.9 27.2
2014-Aug-18 16:57N 26°36' W 034°16'1 0.5 27.2
2014-Aug-18 15:20N 26°35' W 034°15'0 0.2 27.1
2014-Aug-18 13:23N 26°35' W 034°16'0 1.2 27.0
2014-Aug-18 13:20N 26°35' W 034°16'1 1.1 27.0
2014-Aug-18 12:22N 26°35' W 034°15'0 0.1 26.9
2014-Aug-18 11:44N 26°35' W 034°15'0 3.3 26.9
2014-Aug-18 11:39N 26°35' W 034°15'116.3 26.9
2014-Aug-18 11:36N 26°34' W 034°14'0 0.0 26.9
2014-Aug-18 10:50N 26°34' W 034°14'0 0.0 26.8
2014-Aug-18 10:47N 26°34' W 034°14'1 8.4 26.8
2014-Aug-18 10:41N 26°34' W 034°14'0 0.0
2014-Aug-18 09:29N 26°34' W 034°14'0 0.0 26.8
2014-Aug-18 09:23N 26°34' W 034°14'1 0.4 26.8
2014-Aug-18 07:57N 26°34' W 034°14'1 7.9 26.8
2014-Aug-18 07:46N 26°34' W 034°12'0 0.0 26.8
2014-Aug-18 06:23N 26°34' W 034°12'0 0.0 26.9
2014-Aug-18 06:20N 26°34' W 034°12'0 3.2 26.9
2014-Aug-18 06:14N 26°34' W 034°12'0 4.8 26.9
2014-Aug-18 06:10N 26°34' W 034°12'0 0.3 26.9
2014-Aug-18 05:37N 26°34' W 034°12'0 0.0 26.9
2014-Aug-18 05:34N 26°34' W 034°12'0 0.2 26.9
2014-Aug-18 03:58N 26°34' W 034°12'215.6 26.9
2014-Aug-18 03:52N 26°33' W 034°12'0 0.1 26.9
2014-Aug-18 00:57N 26°33' W 034°12'0 0.1 27.2
2014-Aug-18 00:06N 26°33' W 034°12'0 0.2 27.3
2014-Aug-17 23:20N 26°33' W 034°12'0 0.0 27.3
2014-Aug-17 23:16N 26°33' W 034°12'0 0.0 27.3
2014-Aug-17 23:11N 26°33' W 034°12'0 0.7
2014-Aug-17 22:28N 26°33' W 034°11'0 0.0 27.4
2014-Aug-17 22:23N 26°33' W 034°11'121.1 27.4
2014-Aug-17 22:19N 26°32' W 034°10'0 0.0 27.4
2014-Aug-17 21:05N 26°32' W 034°10'0 0.0 27.5
2014-Aug-17 20:31N 26°32' W 034°10'0 0.0 27.6
2014-Aug-17 19:33N 26°32' W 034°10'124.7 27.9
2014-Aug-17 19:30N 26°32' W 034°09'0 0.0 27.9
2014-Aug-17 17:55N 26°32' W 034°09'1 4.5 27.9
2014-Aug-17 17:47N 26°31' W 034°09'1 1.4 27.9
2014-Aug-17 17:11N 26°31' W 034°09'0 0.0 28.1
2014-Aug-17 16:09N 26°31' W 034°09'0 0.1 27.9
2014-Aug-17 15:32N 26°31' W 034°09'1 0.6 27.8
2014-Aug-17 13:47N 26°30' W 034°09'114.5 27.5
2014-Aug-17 13:44N 26°30' W 034°08'0 0.0 27.5
2014-Aug-17 12:44N 26°30' W 034°08'0 0.0 27.2
2014-Aug-17 12:04N 26°30' W 034°08'0 1.2 27.0
2014-Aug-17 11:56N 26°30' W 034°08'0 0.0 27.0
2014-Aug-17 11:09N 26°30' W 034°08'117.6
2014-Aug-17 11:06N 26°29' W 034°07'0 0.0 26.9
2014-Aug-17 08:23N 26°29' W 034°07'0 1.5 26.9
2014-Aug-17 08:11N 26°30' W 034°08'1 8.9 26.9
2014-Aug-17 08:06N 26°30' W 034°07'0 0.1 26.9
2014-Aug-17 06:31N 26°30' W 034°07'0 8.4 27.1
2014-Aug-17 06:28N 26°30' W 034°07'0 0.5 27.1
2014-Aug-17 05:51N 26°30' W 034°07'0 2.5 27.0
2014-Aug-17 05:48N 26°30' W 034°07'0 2.8 27.0
2014-Aug-17 05:41N 26°30' W 034°07'0 0.0
2014-Aug-17 04:10N 26°30' W 034°07'0 3.2 26.8
2014-Aug-17 04:09N 26°30' W 034°07'1 7.7 26.8
2014-Aug-17 04:02N 26°29' W 034°07'0 0.0 26.8
2014-Aug-17 01:14N 26°29' W 034°07'0 0.1 27.0
2014-Aug-17 00:26N 26°29' W 034°07'2 2.2 26.9
2014-Aug-16 23:40N 26°29' W 034°05'112.4 26.9
2014-Aug-16 23:33N 26°28' W 034°06'0 0.0 26.9
2014-Aug-16 23:30N 26°28' W 034°06'0 0.0 26.9
2014-Aug-16 22:48N 26°28' W 034°06'0 3.0 26.9
2014-Aug-16 22:44N 26°28' W 034°06'113.0 26.9
2014-Aug-16 22:39N 26°27' W 034°06'0 0.0 26.9
2014-Aug-16 21:54N 26°27' W 034°06'0 0.6 26.9
2014-Aug-16 21:10N 26°28' W 034°06'1 0.4 27.2
2014-Aug-16 19:52N 26°27' W 034°06'0 0.0 27.6
2014-Aug-16 19:46N 26°27' W 034°06'1 3.1 27.6
2014-Aug-16 19:26N 26°26' W 034°06'0 0.1 27.8
2014-Aug-16 18:14N 26°26' W 034°06'0 3.2 28.3
2014-Aug-16 18:11N 26°26' W 034°06'0 1.9 28.2
2014-Aug-16 18:06N 26°26' W 034°06'1 1.5 28.2
2014-Aug-16 17:23N 26°27' W 034°05'112.3 28.3
2014-Aug-16 17:18N 26°26' W 034°05'0 0.0 28.3
2014-Aug-16 16:22N 26°26' W 034°05'0 0.4 28.5
2014-Aug-16 15:42N 26°26' W 034°04'1 0.5 28.3
2014-Aug-16 13:56N 26°26' W 034°03'0 0.0 27.7
2014-Aug-16 12:26N 26°26' W 034°03'0 2.1 27.0
2014-Aug-16 12:23N 26°26' W 034°04'0 6.7 27.0
2014-Aug-16 12:19N 26°26' W 034°04'010.0 27.0
2014-Aug-16 12:16N 26°26' W 034°04'0 0.1 27.0
2014-Aug-16 11:26N 26°26' W 034°03'0 0.2 26.4
2014-Aug-16 10:43N 26°26' W 034°04'1 9.2 26.4
2014-Aug-16 10:38N 26°25' W 034°03'0 0.0 26.4
2014-Aug-16 08:54N 26°25' W 034°03'1 2.4 26.3
2014-Aug-16 08:34N 26°26' W 034°03'1 7.8 26.3
2014-Aug-16 08:23N 26°26' W 034°02'0 0.0 26.3
2014-Aug-16 08:20N 26°26' W 034°02'122.9 26.3
2014-Aug-16 08:17N 26°25' W 034°03'0 0.0 26.3
2014-Aug-16 07:16N 26°25' W 034°03'0 0.0 26.3
2014-Aug-16 06:54N 26°25' W 034°03'0 1.2 26.3
2014-Aug-16 06:51N 26°25' W 034°03'0 0.5 26.3
2014-Aug-16 06:44N 26°25' W 034°03'0 0.6 26.3
2014-Aug-16 06:36N 26°25' W 034°03'0 0.0 26.3
2014-Aug-16 06:02N 26°25' W 034°03'112.5 26.3
2014-Aug-16 05:56N 26°24' W 034°02'0 0.0 26.3
2014-Aug-16 05:55N 26°24' W 034°02'0 0.0 26.3
2014-Aug-16 05:01N 26°24' W 034°02'0 0.1 26.4
2014-Aug-16 04:20N 26°24' W 034°02'214.4 26.4
2014-Aug-16 04:13N 26°23' W 034°01'0 0.0 26.4
2014-Aug-16 02:40N 26°23' W 034°01'0 0.0 26.4
2014-Aug-16 00:48N 26°23' W 034°01'1 1.4 26.5
2014-Aug-15 23:54N 26°24' W 034°02'0 0.0 26.4
2014-Aug-15 23:53N 26°24' W 034°02'0 0.1 26.4
2014-Aug-15 23:10N 26°24' W 034°02'0 1.3
2014-Aug-15 23:04N 26°24' W 034°02'0 3.0 26.5
2014-Aug-15 22:59N 26°24' W 034°02'0 0.0 26.5
2014-Aug-15 22:19N 26°24' W 034°02'0 6.4 26.5
2014-Aug-15 22:15N 26°25' W 034°02'0 0.0 26.5
2014-Aug-15 21:44N 26°25' W 034°02'1 3.3 26.5
2014-Aug-15 21:24N 26°23' W 034°02'0 0.0 26.6
2014-Aug-15 20:18N 26°23' W 034°02'0 0.0 26.6
2014-Aug-15 19:57N 26°23' W 034°02'0 0.0 26.6
2014-Aug-15 18:35N 26°23' W 034°02'1 2.4 26.7
2014-Aug-15 18:18N 26°23' W 034°02'0 0.0 26.7
2014-Aug-15 18:11N 26°23' W 034°02'1 1.7 26.7
2014-Aug-15 17:32N 26°22' W 034°02'0 0.0 26.7
2014-Aug-15 16:34N 26°22' W 034°02'0 0.5 26.7
2014-Aug-15 15:54N 26°22' W 034°02'1 0.4 26.7
2014-Aug-15 12:47N 26°21' W 034°01'0 0.5 26.4
2014-Aug-15 12:40N 26°21' W 034°01'0 7.3
2014-Aug-15 12:38N 26°21' W 034°01'0 0.0 26.3
2014-Aug-15 11:55N 26°21' W 034°01'0 1.5 26.3
2014-Aug-15 11:46N 26°21' W 034°01'0 0.0 26.3
2014-Aug-15 11:05N 26°21' W 034°01'1 6.8 26.3
2014-Aug-15 10:57N 26°20' W 034°00'0 0.1 26.3
2014-Aug-15 10:09N 26°20' W 034°00'0 0.0 26.3
2014-Aug-15 09:25N 26°20' W 034°00'0 1.2 26.2
2014-Aug-15 09:03N 26°20' W 034°01'0 0.9 26.2
2014-Aug-15 08:31N 26°20' W 034°01'0 0.0 26.3
2014-Aug-15 07:47N 26°20' W 034°01'2 3.6 26.3
2014-Aug-15 07:21N 26°20' W 033°59'0 0.0 26.3
2014-Aug-15 06:55N 26°20' W 033°59'0 0.0 26.3
2014-Aug-15 06:47N 26°20' W 033°59'0 0.0 26.3
2014-Aug-15 06:10N 26°20' W 033°59'0 0.0 26.3
2014-Aug-15 06:06N 26°20' W 033°59'0 0.0 26.3
2014-Aug-15 05:15N 26°20' W 033°59'0 0.0 26.3
2014-Aug-15 05:10N 26°20' W 033°59'011.3 26.3
2014-Aug-15 05:09N 26°20' W 033°59'0 0.0 26.3
2014-Aug-15 04:26N 26°20' W 033°59'115.8 26.3
2014-Aug-15 04:23N 26°19' W 033°59'0 0.0 26.3
2014-Aug-15 02:52N 26°19' W 033°59'113.4 26.3
2014-Aug-15 02:49N 26°19' W 033°59'0 0.0 26.3
2014-Aug-15 01:08N 26°19' W 033°59'0 9.3 26.3
2014-Aug-15 01:05N 26°19' W 033°58'1 1.4 26.3
2014-Aug-15 00:21N 26°19' W 033°57'0 0.0 26.3
2014-Aug-14 23:30N 26°19' W 033°57'1 6.6 26.3
2014-Aug-14 23:24N 26°19' W 033°57'0 0.0 26.3
2014-Aug-14 22:39N 26°19' W 033°57'2 3.4 26.3
2014-Aug-14 22:10N 26°19' W 033°59'0 0.0 26.4
2014-Aug-14 21:47N 26°19' W 033°59'120.5 26.4
2014-Aug-14 21:44N 26°18' W 033°58'1 0.5 26.4
2014-Aug-14 20:40N 26°18' W 033°59'0 0.0 26.4
2014-Aug-14 20:04N 26°18' W 033°59'0 0.0 26.4
2014-Aug-14 19:05N 26°18' W 033°59'1 6.5 26.4
2014-Aug-14 18:55N 26°18' W 033°58'0 0.1 26.5
2014-Aug-14 18:26N 26°18' W 033°58'1 1.6 26.5
2014-Aug-14 17:42N 26°17' W 033°58'0 0.0 26.5
2014-Aug-14 17:20N 26°17' W 033°58'1 1.0 26.5
2014-Aug-14 16:47N 26°17' W 033°58'0 0.5 26.5
2014-Aug-14 16:05N 26°17' W 033°57'2 1.2 26.4
2014-Aug-14 14:23N 26°15' W 033°58'0 0.0 26.4
2014-Aug-14 13:52N 26°15' W 033°58'0 0.0 26.4
2014-Aug-14 13:07N 26°15' W 033°58'0 2.1 26.3
2014-Aug-14 12:55N 26°15' W 033°58'0 0.0 26.3
2014-Aug-14 12:11N 26°15' W 033°58'0 0.0 26.3
2014-Aug-14 12:05N 26°15' W 033°58'0 0.0 26.3
2014-Aug-14 11:25N 26°15' W 033°58'1 8.0 26.3
2014-Aug-14 11:20N 26°16' W 033°58'0 0.0 26.3
2014-Aug-14 10:33N 26°16' W 033°58'214.6 26.2
2014-Aug-14 10:26N 26°14' W 033°57'0 0.0 26.3
2014-Aug-14 09:51N 26°14' W 033°57'0 0.0 26.2
2014-Aug-14 09:22N 26°14' W 033°57'1 1.9 26.2
2014-Aug-14 08:45N 26°14' W 033°55'1 1.7 26.2
2014-Aug-14 08:18N 26°14' W 033°56'1 1.5 26.2
2014-Aug-14 07:47N 26°14' W 033°55'0 0.2 26.2
2014-Aug-14 07:06N 26°14' W 033°55'210.2 26.3
2014-Aug-14 06:56N 26°16' W 033°55'0 0.0 26.3
2014-Aug-14 06:38N 26°16' W 033°55'0 0.0 26.3
2014-Aug-14 06:23N 26°16' W 033°55'0 0.0 26.3
2014-Aug-14 06:07N 26°16' W 033°55'2 1.2 26.3
2014-Aug-14 04:41N 26°14' W 033°55'0 0.0 26.3
2014-Aug-14 04:34N 26°14' W 033°55'0 0.0 26.3
2014-Aug-14 03:03N 26°14' W 033°55'1 9.3 26.3
2014-Aug-14 02:56N 26°13' W 033°55'0 0.0 26.3
2014-Aug-14 01:25N 26°13' W 033°55'1 0.9 26.3
2014-Aug-14 00:41N 26°13' W 033°54'0 0.1 26.3
2014-Aug-13 23:50N 26°13' W 033°54'0 0.3 26.3
2014-Aug-13 23:03N 26°13' W 033°54'0 2.0 26.3
2014-Aug-13 22:52N 26°13' W 033°55'0 0.0 26.4
2014-Aug-13 22:07N 26°13' W 033°55'0 7.9
2014-Aug-13 22:06N 26°13' W 033°55'111.0 26.4
2014-Aug-13 22:03N 26°13' W 033°54'0 0.5 26.4
2014-Aug-13 21:09N 26°13' W 033°55'0 4.8 26.4
2014-Aug-13 21:03N 26°13' W 033°54'0 0.0 26.4
2014-Aug-13 20:15N 26°13' W 033°54'0 0.0 26.4
2014-Aug-13 19:28N 26°13' W 033°54'0 9.9 26.5
2014-Aug-13 19:26N 26°13' W 033°55'0 0.0 26.5
2014-Aug-13 19:20N 26°13' W 033°55'0 0.0 26.5
2014-Aug-13 18:40N 26°13' W 033°55'0 1.6 26.5
2014-Aug-13 18:37N 26°13' W 033°55'1 1.1 26.5
2014-Aug-13 17:53N 26°12' W 033°55'0 2.5 26.5
2014-Aug-13 17:47N 26°12' W 033°55'1 0.8 26.5
2014-Aug-13 16:56N 26°11' W 033°55'0 0.0 26.5
2014-Aug-13 16:10N 26°11' W 033°55'2 1.0 26.4
2014-Aug-13 14:33N 26°10' W 033°55'0 0.0 26.4
2014-Aug-13 13:24N 26°10' W 033°55'0 0.0 26.3
2014-Aug-13 13:18N 26°10' W 033°55'0 0.6 26.3
2014-Aug-13 12:29N 26°10' W 033°55'0 4.8 26.3
2014-Aug-13 12:25N 26°09' W 033°54'1 1.4 26.3
2014-Aug-13 11:40N 26°08' W 033°54'0 0.0 26.3
2014-Aug-13 10:48N 26°08' W 033°54'1 0.4 26.2
2014-Aug-13 08:48N 26°08' W 033°53'0 0.1 26.2
2014-Aug-13 08:10N 26°08' W 033°53'0 0.0 26.2
2014-Aug-13 07:16N 26°08' W 033°53'1 5.5 26.2
2014-Aug-13 07:10N 26°08' W 033°52'133.1 26.2
2014-Aug-13 07:09N 26°08' W 033°53'1 0.9 26.2
2014-Aug-13 06:32N 26°08' W 033°52'0 0.0 26.2
2014-Aug-13 06:26N 26°08' W 033°52'0 0.0 26.2
2014-Aug-13 05:37N 26°08' W 033°52'0 0.2 26.2
2014-Aug-13 04:57N 26°08' W 033°52'0 0.0 26.3
2014-Aug-13 04:52N 26°08' W 033°52'0 3.7 26.3
2014-Aug-13 04:46N 26°08' W 033°52'0 0.0 26.3
2014-Aug-13 03:10N 26°08' W 033°52'011.8 26.3
2014-Aug-13 03:08N 26°08' W 033°52'0 0.0 26.3
2014-Aug-13 00:56N 26°08' W 033°52'0 0.6 26.3
2014-Aug-13 00:09N 26°07' W 033°52'1 0.8 26.3
2014-Aug-12 23:23N 26°08' W 033°51'1 5.0 26.3
2014-Aug-12 23:12N 26°08' W 033°52'0 0.0
2014-Aug-12 22:31N 26°08' W 033°52'0 0.7 26.4
2014-Aug-12 22:24N 26°08' W 033°52'0 0.0 26.4
2014-Aug-12 21:38N 26°08' W 033°52'0 0.2 26.4
2014-Aug-12 19:56N 26°07' W 033°52'0 4.5 26.4
2014-Aug-12 19:53N 26°07' W 033°52'115.4 26.4
2014-Aug-12 19:50N 26°07' W 033°52'0 0.0 26.4
2014-Aug-12 18:51N 26°07' W 033°52'1 0.8 26.4
2014-Aug-12 18:10N 26°07' W 033°52'0 0.3 26.5
2014-Aug-12 17:10N 26°07' W 033°52'0 0.0 26.5
2014-Aug-12 16:27N 26°07' W 033°52'3 1.7 26.5
2014-Aug-12 14:44N 26°04' W 033°51'0 0.0 26.5
2014-Aug-12 12:56N 26°04' W 033°51'0 0.0 26.3
2014-Aug-12 12:51N 26°04' W 033°51'352.3 26.3
2014-Aug-12 12:48N 26°05' W 033°53'0 9.9 26.3
2014-Aug-12 12:45N 26°05' W 033°54'0 0.6 26.3
2014-Aug-12 12:10N 26°05' W 033°54'0 5.6 26.3
2014-Aug-12 12:06N 26°05' W 033°54'0 0.0 26.3
2014-Aug-12 12:02N 26°05' W 033°54'0 0.0 26.3
2014-Aug-12 11:10N 26°05' W 033°54'252.9 26.2
2014-Aug-12 11:08N 26°04' W 033°53'   26.2
Track history (hours):
 
Tides and Currents Weather Stations Pressure Air Temp Water Temp Dewpoint Dewpoint Depression Visibility Wind Speed Wind Dir Waves Ship Positions

Drifting buoy 13526

Last reported at 2014-Aug-22 08:54 UTC. Time now 2014-Aug-22 09:53 UTC.
Position N 26°49' W 034°43'.

Water temperature 26.7 ° C

Date/timePositionNaut miles runAvg speedWind from/ knotsBaromVisibWave heightAir tempDewpointWater temp
2014-Aug-22 08:54N 26°49' W 034°43'0 0.0 26.7
2014-Aug-22 07:27N 26°49' W 034°43'0 0.9 26.7
2014-Aug-22 07:16N 26°49' W 034°42'1 6.2 26.7
2014-Aug-22 07:10N 26°49' W 034°42'0 0.0 26.7
2014-Aug-22 06:33N 26°49' W 034°42'0 0.0 26.7
2014-Aug-22 06:10N 26°49' W 034°42'1 1.0 26.7
2014-Aug-22 05:35N 26°49' W 034°42'0 0.0 26.7
2014-Aug-22 04:54N 26°49' W 034°42'0 3.7 26.7
2014-Aug-22 04:46N 26°49' W 034°41'0 0.0 26.7
2014-Aug-22 03:17N 26°49' W 034°41'112.0 26.7
2014-Aug-22 03:11N 26°49' W 034°40'0 0.1 26.7
2014-Aug-22 00:24N 26°48' W 034°40'1 1.1 26.7
2014-Aug-21 23:38N 26°49' W 034°41'1 3.9 26.7
2014-Aug-21 23:27N 26°48' W 034°41'0 0.0 26.7
2014-Aug-21 22:44N 26°48' W 034°41'1 8.3 26.8
2014-Aug-21 22:39N 26°48' W 034°41'116.5 26.8
2014-Aug-21 22:35N 26°48' W 034°40'1 0.8 26.8
2014-Aug-21 21:55N 26°48' W 034°40'1 0.4 26.8
2014-Aug-21 20:09N 26°48' W 034°40'0 8.0 26.9
2014-Aug-21 20:06N 26°48' W 034°39'0 0.0 26.9
2014-Aug-21 19:29N 26°48' W 034°39'0 0.3 26.9
2014-Aug-21 18:51N 26°48' W 034°39'0 0.2 26.9
2014-Aug-21 17:50N 26°48' W 034°40'0 0.5 26.9
2014-Aug-21 17:08N 26°48' W 034°39'0 0.0 26.9
2014-Aug-21 16:28N 26°48' W 034°39'0 0.0 26.9
2014-Aug-21 16:27N 26°48' W 034°39'0 0.0 26.9
2014-Aug-21 16:24N 26°48' W 034°39'1 0.8 26.9
2014-Aug-21 14:47N 26°48' W 034°38'0 0.0 26.9
2014-Aug-21 13:09N 26°48' W 034°38'1 7.3 26.8
2014-Aug-21 13:00N 26°47' W 034°37'0 0.0 26.8
2014-Aug-21 12:23N 26°47' W 034°37'0 0.0 26.7
2014-Aug-21 12:18N 26°47' W 034°37'118.2 26.7
2014-Aug-21 12:15N 26°47' W 034°38'0 0.0 26.7
2014-Aug-21 11:28N 26°47' W 034°38'217.2 26.7
2014-Aug-21 11:22N 26°46' W 034°36'0 0.0 26.7
2014-Aug-21 08:10N 26°46' W 034°36'1 3.2 26.6
2014-Aug-21 07:58N 26°46' W 034°37'1 1.0 26.6
2014-Aug-21 07:26N 26°46' W 034°36'0 3.8 26.7
2014-Aug-21 07:21N 26°46' W 034°36'0 0.0 26.7
2014-Aug-21 06:35N 26°46' W 034°36'0 4.2 26.7
2014-Aug-21 06:29N 26°46' W 034°36'0 0.0 26.7
2014-Aug-21 06:15N 26°46' W 034°36'1 1.8 26.7
2014-Aug-21 05:41N 26°45' W 034°35'0 0.0 26.7
2014-Aug-21 05:06N 26°45' W 034°35'1 4.5 26.7
2014-Aug-21 04:57N 26°46' W 034°34'0 0.0 26.7
2014-Aug-21 03:28N 26°46' W 034°34'0 0.0 26.7
2014-Aug-21 03:25N 26°46' W 034°34'1 7.2 26.7
2014-Aug-21 03:19N 26°45' W 034°34'0 0.0 26.7
2014-Aug-21 00:41N 26°45' W 034°34'1 1.0 26.8
2014-Aug-20 23:55N 26°45' W 034°33'0 1.6 26.8
2014-Aug-20 23:52N 26°45' W 034°33'0 0.0 26.8
2014-Aug-20 23:04N 26°45' W 034°33'0 3.2 26.8
2014-Aug-20 23:01N 26°45' W 034°33'0 4.3
2014-Aug-20 22:55N 26°45' W 034°33'0 0.2
2014-Aug-20 22:23N 26°45' W 034°33'2 7.6 26.8
2014-Aug-20 22:07N 26°44' W 034°31'1 0.6 26.8
2014-Aug-20 20:49N 26°45' W 034°31'1 4.1 26.9
2014-Aug-20 20:37N 26°44' W 034°31'0 0.7 26.9
2014-Aug-20 19:56N 26°44' W 034°31'0 0.0 26.9
2014-Aug-20 19:52N 26°44' W 034°31'0 0.0 26.9
2014-Aug-20 19:02N 26°44' W 034°31'0 0.0 26.9
2014-Aug-20 18:56N 26°44' W 034°31'0 0.0 26.9
2014-Aug-20 18:13N 26°44' W 034°31'1 0.6 26.9
2014-Aug-20 17:21N 26°43' W 034°31'0 0.1 26.9
2014-Aug-20 16:39N 26°43' W 034°31'111.1 26.9
2014-Aug-20 16:35N 26°44' W 034°30'0 0.1 26.9
2014-Aug-20 14:57N 26°44' W 034°31'2 0.7 26.9
2014-Aug-20 12:39N 26°44' W 034°29'0 0.0 26.7
2014-Aug-20 12:32N 26°44' W 034°29'1 1.3 26.7
2014-Aug-20 11:42N 26°43' W 034°28'0 0.0 26.7
2014-Aug-20 10:56N 26°43' W 034°28'0 0.4 26.7
2014-Aug-20 10:04N 26°43' W 034°28'0 0.2 26.7
2014-Aug-20 08:33N 26°43' W 034°28'0 0.0 26.7
2014-Aug-20 07:38N 26°43' W 034°28'0 2.0 26.7
2014-Aug-20 07:30N 26°43' W 034°28'0 0.0 26.7
2014-Aug-20 06:57N 26°43' W 034°28'118.6 26.7
2014-Aug-20 06:54N 26°42' W 034°27'0 3.9 26.7
2014-Aug-20 06:49N 26°42' W 034°27'0 0.4 26.7
2014-Aug-20 05:57N 26°42' W 034°27'111.1 26.7
2014-Aug-20 05:52N 26°42' W 034°26'0 0.0 26.7
2014-Aug-20 05:15N 26°42' W 034°26'0 0.1 26.7
2014-Aug-20 03:39N 26°42' W 034°26'0 7.3 26.8
2014-Aug-20 03:36N 26°42' W 034°26'0 0.0 26.8
2014-Aug-20 01:05N 26°42' W 034°26'1 0.3 26.9
2014-Aug-19 23:27N 26°41' W 034°26'111.9 26.9
2014-Aug-19 23:21N 26°41' W 034°25'0 0.1 26.9
2014-Aug-19 22:35N 26°41' W 034°25'118.8 26.9
2014-Aug-19 22:32N 26°42' W 034°25'0 0.0 26.9
2014-Aug-19 21:45N 26°42' W 034°25'232.2 27.0
2014-Aug-19 21:42N 26°41' W 034°24'0 0.0 27.0
2014-Aug-19 21:38N 26°41' W 034°24'0 0.2 27.0
2014-Aug-19 19:33N 26°41' W 034°24'0 0.0 27.2
2014-Aug-19 19:10N 26°41' W 034°24'0 0.7 27.2
2014-Aug-19 18:41N 26°41' W 034°24'0 0.0 27.1
2014-Aug-19 18:38N 26°41' W 034°24'1 0.7 27.1
2014-Aug-19 17:32N 26°40' W 034°23'0 0.5 27.1
2014-Aug-19 16:50N 26°40' W 034°23'1 0.8 27.1
2014-Aug-19 15:09N 26°39' W 034°23'0 0.0 27.1
2014-Aug-19 13:49N 26°39' W 034°23'0 0.0 27.0
2014-Aug-19 13:00N 26°39' W 034°23'111.8 26.9
2014-Aug-19 12:54N 26°39' W 034°21'0 0.0 26.9
2014-Aug-19 12:10N 26°39' W 034°21'0 0.0 26.7
2014-Aug-19 12:08N 26°39' W 034°21'0 0.0 26.7
2014-Aug-19 12:02N 26°39' W 034°21'0 0.1 26.7
2014-Aug-19 11:22N 26°39' W 034°21'1 7.6 26.7
2014-Aug-19 11:16N 26°39' W 034°20'0 0.2 26.7
2014-Aug-19 10:27N 26°39' W 034°20'0 0.0 26.7
2014-Aug-19 09:03N 26°39' W 034°20'0 2.6 26.7
2014-Aug-19 08:56N 26°40' W 034°20'0 0.4 26.7
2014-Aug-19 07:47N 26°39' W 034°20'0 0.0 26.7
2014-Aug-19 07:24N 26°39' W 034°20'0 6.9 26.7
2014-Aug-19 07:21N 26°39' W 034°20'0 0.0 26.7
2014-Aug-19 06:11N 26°39' W 034°20'0 0.0 26.7
2014-Aug-19 06:09N 26°39' W 034°20'111.3 26.7
2014-Aug-19 06:03N 26°39' W 034°19'0 0.0 26.7
2014-Aug-19 05:26N 26°39' W 034°19'1 0.4 26.7
2014-Aug-19 03:50N 26°39' W 034°19'0 2.5 26.7
2014-Aug-19 03:47N 26°39' W 034°19'219.8 26.7
2014-Aug-19 03:42N 26°37' W 034°20'1 0.4 26.7
2014-Aug-19 01:23N 26°38' W 034°19'1 1.0 26.7
2014-Aug-19 00:37N 26°37' W 034°18'0 0.1 26.8
2014-Aug-18 23:41N 26°37' W 034°18'0 0.5 26.9
2014-Aug-18 22:57N 26°37' W 034°18'0 1.6 26.9
2014-Aug-18 22:54N 26°37' W 034°18'0 2.5 26.9
2014-Aug-18 22:51N 26°37' W 034°18'0 0.0 26.9
2014-Aug-18 22:46N 26°37' W 034°18'0 0.0
2014-Aug-18 22:06N 26°37' W 034°18'1 5.9 26.9
2014-Aug-18 21:59N 26°36' W 034°17'0 0.0 26.9
2014-Aug-18 21:49N 26°36' W 034°17'0 0.2 26.9
2014-Aug-18 20:43N 26°36' W 034°17'0 0.5 27.0
2014-Aug-18 20:10N 26°36' W 034°17'0 1.7 27.0
2014-Aug-18 20:04N 26°36' W 034°17'0 0.0 27.0
2014-Aug-18 19:24N 26°36' W 034°17'0 0.6 27.1
2014-Aug-18 19:05N 26°36' W 034°17'0 0.0 27.1
2014-Aug-18 17:44N 26°36' W 034°17'1 1.9 27.2
2014-Aug-18 17:23N 26°36' W 034°16'1 2.4 27.2
2014-Aug-18 17:01N 26°36' W 034°16'1 7.9 27.2
2014-Aug-18 16:57N 26°36' W 034°16'1 0.5 27.2
2014-Aug-18 15:20N 26°35' W 034°15'0 0.2 27.1
2014-Aug-18 13:23N 26°35' W 034°16'0 1.2 27.0
2014-Aug-18 13:20N 26°35' W 034°16'1 1.1 27.0
2014-Aug-18 12:22N 26°35' W 034°15'0 0.1 26.9
2014-Aug-18 11:44N 26°35' W 034°15'0 3.3 26.9
2014-Aug-18 11:39N 26°35' W 034°15'116.3 26.9
2014-Aug-18 11:36N 26°34' W 034°14'0 0.0 26.9
2014-Aug-18 10:50N 26°34' W 034°14'0 0.0 26.8
2014-Aug-18 10:47N 26°34' W 034°14'1 8.4 26.8
2014-Aug-18 10:41N 26°34' W 034°14'0 0.0
2014-Aug-18 09:29N 26°34' W 034°14'0 0.0 26.8
2014-Aug-18 09:23N 26°34' W 034°14'1 0.4 26.8
2014-Aug-18 07:57N 26°34' W 034°14'1 7.9 26.8
2014-Aug-18 07:46N 26°34' W 034°12'0 0.0 26.8
2014-Aug-18 06:23N 26°34' W 034°12'0 0.0 26.9
2014-Aug-18 06:20N 26°34' W 034°12'0 3.2 26.9
2014-Aug-18 06:14N 26°34' W 034°12'0 4.8 26.9
2014-Aug-18 06:10N 26°34' W 034°12'0 0.3 26.9
2014-Aug-18 05:37N 26°34' W 034°12'0 0.0 26.9
2014-Aug-18 05:34N 26°34' W 034°12'0 0.2 26.9
2014-Aug-18 03:58N 26°34' W 034°12'215.6 26.9
2014-Aug-18 03:52N 26°33' W 034°12'0 0.1 26.9
2014-Aug-18 00:57N 26°33' W 034°12'0 0.1 27.2
2014-Aug-18 00:06N 26°33' W 034°12'0 0.2 27.3
2014-Aug-17 23:20N 26°33' W 034°12'0 0.0 27.3
2014-Aug-17 23:16N 26°33' W 034°12'0 0.0 27.3
2014-Aug-17 23:11N 26°33' W 034°12'0 0.7
2014-Aug-17 22:28N 26°33' W 034°11'0 0.0 27.4
2014-Aug-17 22:23N 26°33' W 034°11'121.1 27.4
2014-Aug-17 22:19N 26°32' W 034°10'0 0.0 27.4
2014-Aug-17 21:05N 26°32' W 034°10'0 0.0 27.5
2014-Aug-17 20:31N 26°32' W 034°10'0 0.0 27.6
2014-Aug-17 19:33N 26°32' W 034°10'124.7 27.9
2014-Aug-17 19:30N 26°32' W 034°09'0 0.0 27.9
2014-Aug-17 17:55N 26°32' W 034°09'1 4.5 27.9
2014-Aug-17 17:47N 26°31' W 034°09'1 1.4 27.9
2014-Aug-17 17:11N 26°31' W 034°09'0 0.0 28.1
2014-Aug-17 16:09N 26°31' W 034°09'0 0.1 27.9
2014-Aug-17 15:32N 26°31' W 034°09'1 0.6 27.8
2014-Aug-17 13:47N 26°30' W 034°09'114.5 27.5
2014-Aug-17 13:44N 26°30' W 034°08'0 0.0 27.5
2014-Aug-17 12:44N 26°30' W 034°08'0 0.0 27.2
2014-Aug-17 12:04N 26°30' W 034°08'0 1.2 27.0
2014-Aug-17 11:56N 26°30' W 034°08'0 0.0 27.0
2014-Aug-17 11:09N 26°30' W 034°08'117.6
2014-Aug-17 11:06N 26°29' W 034°07'0 0.0 26.9
2014-Aug-17 08:23N 26°29' W 034°07'0 1.5 26.9
2014-Aug-17 08:11N 26°30' W 034°08'1 8.9 26.9
2014-Aug-17 08:06N 26°30' W 034°07'0 0.1 26.9
2014-Aug-17 06:31N 26°30' W 034°07'0 8.4 27.1
2014-Aug-17 06:28N 26°30' W 034°07'0 0.5 27.1
2014-Aug-17 05:51N 26°30' W 034°07'0 2.5 27.0
2014-Aug-17 05:48N 26°30' W 034°07'0 2.8 27.0
2014-Aug-17 05:41N 26°30' W 034°07'0 0.0
2014-Aug-17 04:10N 26°30' W 034°07'0 3.2 26.8
2014-Aug-17 04:09N 26°30' W 034°07'1 7.7 26.8
2014-Aug-17 04:02N 26°29' W 034°07'0 0.0 26.8
2014-Aug-17 01:14N 26°29' W 034°07'0 0.1 27.0
2014-Aug-17 00:26N 26°29' W 034°07'2 2.2 26.9
2014-Aug-16 23:40N 26°29' W 034°05'112.4 26.9
2014-Aug-16 23:33N 26°28' W 034°06'0 0.0 26.9
2014-Aug-16 23:30N 26°28' W 034°06'0 0.0 26.9
2014-Aug-16 22:48N 26°28' W 034°06'0 3.0 26.9
2014-Aug-16 22:44N 26°28' W 034°06'113.0 26.9
2014-Aug-16 22:39N 26°27' W 034°06'0 0.0 26.9
2014-Aug-16 21:54N 26°27' W 034°06'0 0.6 26.9
2014-Aug-16 21:10N 26°28' W 034°06'1 0.4 27.2
2014-Aug-16 19:52N 26°27' W 034°06'0 0.0 27.6
2014-Aug-16 19:46N 26°27' W 034°06'1 3.1 27.6
2014-Aug-16 19:26N 26°26' W 034°06'0 0.1 27.8
2014-Aug-16 18:14N 26°26' W 034°06'0 3.2 28.3
2014-Aug-16 18:11N 26°26' W 034°06'0 1.9 28.2
2014-Aug-16 18:06N 26°26' W 034°06'1 1.5 28.2
2014-Aug-16 17:23N 26°27' W 034°05'112.3 28.3
2014-Aug-16 17:18N 26°26' W 034°05'0 0.0 28.3
2014-Aug-16 16:22N 26°26' W 034°05'0 0.4 28.5
2014-Aug-16 15:42N 26°26' W 034°04'1 0.5 28.3
2014-Aug-16 13:56N 26°26' W 034°03'0 0.0 27.7
2014-Aug-16 12:26N 26°26' W 034°03'0 2.1 27.0
2014-Aug-16 12:23N 26°26' W 034°04'0 6.7 27.0
2014-Aug-16 12:19N 26°26' W 034°04'010.0 27.0
2014-Aug-16 12:16N 26°26' W 034°04'0 0.1 27.0
2014-Aug-16 11:26N 26°26' W 034°03'0 0.2 26.4
2014-Aug-16 10:43N 26°26' W 034°04'1 9.2 26.4
2014-Aug-16 10:38N 26°25' W 034°03'0 0.0 26.4
2014-Aug-16 08:54N 26°25' W 034°03'1 2.4 26.3
2014-Aug-16 08:34N 26°26' W 034°03'1 7.8 26.3
2014-Aug-16 08:23N 26°26' W 034°02'0 0.0 26.3
2014-Aug-16 08:20N 26°26' W 034°02'122.9 26.3
2014-Aug-16 08:17N 26°25' W 034°03'0 0.0 26.3
2014-Aug-16 07:16N 26°25' W 034°03'0 0.0 26.3
2014-Aug-16 06:54N 26°25' W 034°03'0 1.2 26.3
2014-Aug-16 06:51N 26°25' W 034°03'0 0.5 26.3
2014-Aug-16 06:44N 26°25' W 034°03'0 0.6 26.3
2014-Aug-16 06:36N 26°25' W 034°03'0 0.0 26.3
2014-Aug-16 06:02N 26°25' W 034°03'112.5 26.3
2014-Aug-16 05:56N 26°24' W 034°02'0 0.0 26.3
2014-Aug-16 05:55N 26°24' W 034°02'0 0.0 26.3
2014-Aug-16 05:01N 26°24' W 034°02'0 0.1 26.4
2014-Aug-16 04:20N 26°24' W 034°02'214.4 26.4
2014-Aug-16 04:13N 26°23' W 034°01'0 0.0 26.4
2014-Aug-16 02:40N 26°23' W 034°01'0 0.0 26.4
2014-Aug-16 00:48N 26°23' W 034°01'1 1.4 26.5
2014-Aug-15 23:54N 26°24' W 034°02'0 0.0 26.4
2014-Aug-15 23:53N 26°24' W 034°02'0 0.1 26.4
2014-Aug-15 23:10N 26°24' W 034°02'0 1.3
2014-Aug-15 23:04N 26°24' W 034°02'0 3.0 26.5
2014-Aug-15 22:59N 26°24' W 034°02'0 0.0 26.5
2014-Aug-15 22:19N 26°24' W 034°02'0 6.4 26.5
2014-Aug-15 22:15N 26°25' W 034°02'0 0.0 26.5
2014-Aug-15 21:44N 26°25' W 034°02'1 3.3 26.5
2014-Aug-15 21:24N 26°23' W 034°02'0 0.0 26.6
2014-Aug-15 20:18N 26°23' W 034°02'0 0.0 26.6
2014-Aug-15 19:57N 26°23' W 034°02'0 0.0 26.6
2014-Aug-15 18:35N 26°23' W 034°02'1 2.4 26.7
2014-Aug-15 18:18N 26°23' W 034°02'0 0.0 26.7
2014-Aug-15 18:11N 26°23' W 034°02'1 1.7 26.7
2014-Aug-15 17:32N 26°22' W 034°02'0 0.0 26.7
2014-Aug-15 16:34N 26°22' W 034°02'0 0.5 26.7
2014-Aug-15 15:54N 26°22' W 034°02'1 0.4 26.7
2014-Aug-15 12:47N 26°21' W 034°01'0 0.5 26.4
2014-Aug-15 12:40N 26°21' W 034°01'0 7.3
2014-Aug-15 12:38N 26°21' W 034°01'0 0.0 26.3
2014-Aug-15 11:55N 26°21' W 034°01'0 1.5 26.3
2014-Aug-15 11:46N 26°21' W 034°01'0 0.0 26.3
2014-Aug-15 11:05N 26°21' W 034°01'1 6.8 26.3
2014-Aug-15 10:57N 26°20' W 034°00'0 0.1 26.3
2014-Aug-15 10:09N 26°20' W 034°00'0 0.0 26.3
2014-Aug-15 09:25N 26°20' W 034°00'0 1.2 26.2
2014-Aug-15 09:03N 26°20' W 034°01'0 0.9 26.2
2014-Aug-15 08:31N 26°20' W 034°01'0 0.0 26.3
2014-Aug-15 07:47N 26°20' W 034°01'2 3.6 26.3
2014-Aug-15 07:21N 26°20' W 033°59'0 0.0 26.3
2014-Aug-15 06:55N 26°20' W 033°59'0 0.0 26.3
2014-Aug-15 06:47N 26°20' W 033°59'0 0.0 26.3
2014-Aug-15 06:10N 26°20' W 033°59'0 0.0 26.3
2014-Aug-15 06:06N 26°20' W 033°59'0 0.0 26.3
2014-Aug-15 05:15N 26°20' W 033°59'0 0.0 26.3
2014-Aug-15 05:10N 26°20' W 033°59'011.3 26.3
2014-Aug-15 05:09N 26°20' W 033°59'0 0.0 26.3
2014-Aug-15 04:26N 26°20' W 033°59'115.8 26.3
2014-Aug-15 04:23N 26°19' W 033°59'0 0.0 26.3
2014-Aug-15 02:52N 26°19' W 033°59'113.4 26.3
2014-Aug-15 02:49N 26°19' W 033°59'0 0.0 26.3
2014-Aug-15 01:08N 26°19' W 033°59'0 9.3 26.3
2014-Aug-15 01:05N 26°19' W 033°58'1 1.4 26.3
2014-Aug-15 00:21N 26°19' W 033°57'0 0.0 26.3
2014-Aug-14 23:30N 26°19' W 033°57'1 6.6 26.3
2014-Aug-14 23:24N 26°19' W 033°57'0 0.0 26.3
2014-Aug-14 22:39N 26°19' W 033°57'2 3.4 26.3
2014-Aug-14 22:10N 26°19' W 033°59'0 0.0 26.4
2014-Aug-14 21:47N 26°19' W 033°59'120.5 26.4
2014-Aug-14 21:44N 26°18' W 033°58'1 0.5 26.4
2014-Aug-14 20:40N 26°18' W 033°59'0 0.0 26.4
2014-Aug-14 20:04N 26°18' W 033°59'0 0.0 26.4
2014-Aug-14 19:05N 26°18' W 033°59'1 6.5 26.4
2014-Aug-14 18:55N 26°18' W 033°58'0 0.1 26.5
2014-Aug-14 18:26N 26°18' W 033°58'1 1.6 26.5
2014-Aug-14 17:42N 26°17' W 033°58'0 0.0 26.5
2014-Aug-14 17:20N 26°17' W 033°58'1 1.0 26.5
2014-Aug-14 16:47N 26°17' W 033°58'0 0.5 26.5
2014-Aug-14 16:05N 26°17' W 033°57'2 1.2 26.4
2014-Aug-14 14:23N 26°15' W 033°58'0 0.0 26.4
2014-Aug-14 13:52N 26°15' W 033°58'0 0.0 26.4
2014-Aug-14 13:07N 26°15' W 033°58'0 2.1 26.3
2014-Aug-14 12:55N 26°15' W 033°58'0 0.0 26.3
2014-Aug-14 12:11N 26°15' W 033°58'0 0.0 26.3
2014-Aug-14 12:05N 26°15' W 033°58'0 0.0 26.3
2014-Aug-14 11:25N 26°15' W 033°58'1 8.0 26.3
2014-Aug-14 11:20N 26°16' W 033°58'0 0.0 26.3
2014-Aug-14 10:33N 26°16' W 033°58'214.6 26.2
2014-Aug-14 10:26N 26°14' W 033°57'0 0.0 26.3
2014-Aug-14 09:51N 26°14' W 033°57'0 0.0 26.2
2014-Aug-14 09:22N 26°14' W 033°57'1 1.9 26.2
2014-Aug-14 08:45N 26°14' W 033°55'1 1.7 26.2
2014-Aug-14 08:18N 26°14' W 033°56'1 1.5 26.2
2014-Aug-14 07:47N 26°14' W 033°55'0 0.2 26.2
2014-Aug-14 07:06N 26°14' W 033°55'210.2 26.3
2014-Aug-14 06:56N 26°16' W 033°55'0 0.0 26.3
2014-Aug-14 06:38N 26°16' W 033°55'0 0.0 26.3
2014-Aug-14 06:23N 26°16' W 033°55'0 0.0 26.3
2014-Aug-14 06:07N 26°16' W 033°55'2 1.2 26.3
2014-Aug-14 04:41N 26°14' W 033°55'0 0.0 26.3
2014-Aug-14 04:34N 26°14' W 033°55'0 0.0 26.3
2014-Aug-14 03:03N 26°14' W 033°55'1 9.3 26.3
2014-Aug-14 02:56N 26°13' W 033°55'0 0.0 26.3
2014-Aug-14 01:25N 26°13' W 033°55'1 0.9 26.3
2014-Aug-14 00:41N 26°13' W 033°54'0 0.1 26.3
2014-Aug-13 23:50N 26°13' W 033°54'0 0.3 26.3
2014-Aug-13 23:03N 26°13' W 033°54'0 2.0 26.3
2014-Aug-13 22:52N 26°13' W 033°55'0 0.0 26.4
2014-Aug-13 22:07N 26°13' W 033°55'0 7.9
2014-Aug-13 22:06N 26°13' W 033°55'111.0 26.4
2014-Aug-13 22:03N 26°13' W 033°54'0 0.5 26.4
2014-Aug-13 21:09N 26°13' W 033°55'0 4.8 26.4
2014-Aug-13 21:03N 26°13' W 033°54'0 0.0 26.4
2014-Aug-13 20:15N 26°13' W 033°54'0 0.0 26.4
2014-Aug-13 19:28N 26°13' W 033°54'0 9.9 26.5
2014-Aug-13 19:26N 26°13' W 033°55'0 0.0 26.5
2014-Aug-13 19:20N 26°13' W 033°55'0 0.0 26.5
2014-Aug-13 18:40N 26°13' W 033°55'0 1.6 26.5
2014-Aug-13 18:37N 26°13' W 033°55'1 1.1 26.5
2014-Aug-13 17:53N 26°12' W 033°55'0 2.5 26.5
2014-Aug-13 17:47N 26°12' W 033°55'1 0.8 26.5
2014-Aug-13 16:56N 26°11' W 033°55'0 0.0 26.5
2014-Aug-13 16:10N 26°11' W 033°55'2 1.0 26.4
2014-Aug-13 14:33N 26°10' W 033°55'0 0.0 26.4
2014-Aug-13 13:24N 26°10' W 033°55'0 0.0 26.3
2014-Aug-13 13:18N 26°10' W 033°55'0 0.6 26.3
2014-Aug-13 12:29N 26°10' W 033°55'0 4.8 26.3
2014-Aug-13 12:25N 26°09' W 033°54'1 1.4 26.3
2014-Aug-13 11:40N 26°08' W 033°54'0 0.0 26.3
2014-Aug-13 10:48N 26°08' W 033°54'1 0.4 26.2
2014-Aug-13 08:48N 26°08' W 033°53'0 0.1 26.2
2014-Aug-13 08:10N 26°08' W 033°53'0 0.0 26.2
2014-Aug-13 07:16N 26°08' W 033°53'1 5.5 26.2
2014-Aug-13 07:10N 26°08' W 033°52'133.1 26.2
2014-Aug-13 07:09N 26°08' W 033°53'1 0.9 26.2
2014-Aug-13 06:32N 26°08' W 033°52'0 0.0 26.2
2014-Aug-13 06:26N 26°08' W 033°52'0 0.0 26.2
2014-Aug-13 05:37N 26°08' W 033°52'0 0.2 26.2
2014-Aug-13 04:57N 26°08' W 033°52'0 0.0 26.3
2014-Aug-13 04:52N 26°08' W 033°52'0 3.7 26.3
2014-Aug-13 04:46N 26°08' W 033°52'0 0.0 26.3
2014-Aug-13 03:10N 26°08' W 033°52'011.8 26.3
2014-Aug-13 03:08N 26°08' W 033°52'0 0.0 26.3
2014-Aug-13 00:56N 26°08' W 033°52'0 0.6 26.3
2014-Aug-13 00:09N 26°07' W 033°52'1 0.8 26.3
2014-Aug-12 23:23N 26°08' W 033°51'1 5.0 26.3
2014-Aug-12 23:12N 26°08' W 033°52'0 0.0
2014-Aug-12 22:31N 26°08' W 033°52'0 0.7 26.4
2014-Aug-12 22:24N 26°08' W 033°52'0 0.0 26.4
2014-Aug-12 21:38N 26°08' W 033°52'0 0.2 26.4
2014-Aug-12 19:56N 26°07' W 033°52'0 4.5 26.4
2014-Aug-12 19:53N 26°07' W 033°52'115.4 26.4
2014-Aug-12 19:50N 26°07' W 033°52'0 0.0 26.4
2014-Aug-12 18:51N 26°07' W 033°52'1 0.8 26.4
2014-Aug-12 18:10N 26°07' W 033°52'0 0.3 26.5
2014-Aug-12 17:10N 26°07' W 033°52'0 0.0 26.5
2014-Aug-12 16:27N 26°07' W 033°52'3 1.7 26.5
2014-Aug-12 14:44N 26°04' W 033°51'0 0.0 26.5
2014-Aug-12 12:56N 26°04' W 033°51'0 0.0 26.3
2014-Aug-12 12:51N 26°04' W 033°51'352.3 26.3
2014-Aug-12 12:48N 26°05' W 033°53'0 9.9 26.3
2014-Aug-12 12:45N 26°05' W 033°54'0 0.6 26.3
2014-Aug-12 12:10N 26°05' W 033°54'0 5.6 26.3
2014-Aug-12 12:06N 26°05' W 033°54'0 0.0 26.3
2014-Aug-12 12:02N 26°05' W 033°54'0 0.0 26.3
2014-Aug-12 11:10N 26°05' W 033°54'252.9 26.2
2014-Aug-12 11:08N 26°04' W 033°53'   26.2

Dump ship's entire track history